Time;durP1;ratioP1;P1;durP2;ratioP2;P2;SDS_P1;SDS_P2;PMS_P1;PMS_P2;Temp;Humidity;BMP_temperature;BMP_pressure;BME280_temperature;BME280_humidity;BME280_pressure;Samples;Min_cycle;Max_cycle;Signal;HPM_P1;HPM_P2
2023/10/31 00:01:02;;;;;;;1.45;0.55;;;;;;;12.80;85.63;99027.72;4159120;28;20129;-65
2023/10/31 00:03:05;;;;;;;0.85;0.40;;;;;;;12.78;85.72;99032.97;4160099;28;20034;-65
2023/10/31 00:05:08;;;;;;;2.58;0.82;;;;;;;12.80;84.92;99038.16;4161426;28;20029;-65
2023/10/31 00:07:11;;;;;;;1.20;0.60;;;;;;;12.72;84.68;99035.69;4159242;28;20037;-65
2023/10/31 00:09:14;;;;;;;1.08;0.70;;;;;;;12.71;84.17;99047.00;4160909;28;20039;-66
2023/10/31 00:11:17;;;;;;;2.13;0.75;;;;;;;12.72;84.61;99046.13;4159323;28;20029;-65
2023/10/31 00:13:20;;;;;;;1.08;0.75;;;;;;;12.67;84.74;99060.97;4159060;28;20120;-66
2023/10/31 00:15:24;;;;;;;0.40;0.40;;;;;;;12.61;84.21;99063.69;4160404;28;20051;-65
2023/10/31 00:17:26;;;;;;;1.17;0.70;;;;;;;12.61;84.02;99055.88;4161543;28;20487;-65
2023/10/31 00:19:29;;;;;;;0.80;0.80;;;;;;;12.58;83.45;99054.16;4161160;28;20072;-65
2023/10/31 00:21:32;;;;;;;0.75;0.57;;;;;;;12.61;84.36;99050.66;4162149;28;20051;-65
2023/10/31 00:23:43;;;;;;;1.67;0.80;;;;;;;12.63;83.91;99059.31;4160508;28;20038;-65
2023/10/31 00:25:46;;;;;;;0.60;0.38;;;;;;;12.61;84.19;99061.94;4161176;28;20372;-65
2023/10/31 00:27:49;;;;;;;1.13;0.60;;;;;;;12.63;84.49;99065.41;4160767;28;20049;-66
2023/10/31 00:30:17;;;;;;;13.43;0.90;;;;;;;12.67;84.65;99071.41;4173100;28;20037;-65
2023/10/31 00:32:20;;;;;;;1.15;0.65;;;;;;;12.60;83.64;99070.66;4191306;28;20472;-65
2023/10/31 00:34:23;;;;;;;2.25;0.63;;;;;;;12.58;84.21;99067.19;4157754;28;20443;-65
2023/10/31 00:36:26;;;;;;;1.58;0.60;;;;;;;12.58;83.24;99068.06;4157859;28;20033;-65
2023/10/31 00:38:29;;;;;;;1.75;0.73;;;;;;;12.57;83.85;99071.56;4175899;28;20041;-66
2023/10/31 00:40:33;;;;;;;0.52;0.52;;;;;;;12.50;82.44;99069.94;4174085;28;20537;-65
2023/10/31 00:42:36;;;;;;;0.75;0.75;;;;;;;12.43;82.96;99073.53;4158151;28;20041;-65
2023/10/31 00:44:39;;;;;;;1.27;0.80;;;;;;;12.38;83.01;99078.81;4162311;28;20124;-66
2023/10/31 00:46:43;;;;;;;1.70;0.60;;;;;;;12.34;82.67;99071.94;4159207;28;20045;-66
2023/10/31 00:48:46;;;;;;;1.33;0.60;;;;;;;12.16;80.65;99072.19;4173671;28;20415;-66
2023/10/31 00:50:48;;;;;;;0.90;0.50;;;;;;;12.10;80.83;99067.94;4160267;28;20167;-65
2023/10/31 00:52:51;;;;;;;2.63;0.70;;;;;;;12.11;80.65;99067.06;4161238;28;20030;-65
2023/10/31 00:54:54;;;;;;;1.50;0.63;;;;;;;12.03;80.43;99058.47;4159134;28;20041;-65
2023/10/31 00:56:58;;;;;;;0.90;0.55;;;;;;;12.04;80.65;99065.41;4159030;28;20483;-65
2023/10/31 00:59:01;;;;;;;1.77;1.00;;;;;;;12.02;80.04;99069.81;4160718;28;20140;-65
2023/10/31 01:01:04;;;;;;;3.70;0.70;;;;;;;12.05;80.56;99069.75;4175638;28;20135;-65
2023/10/31 01:03:07;;;;;;;1.25;0.60;;;;;;;11.96;79.87;99062.06;4159562;28;20041;-65
2023/10/31 01:05:12;;;;;;;3.90;0.60;;;;;;;12.04;79.58;99071.47;4160334;28;20496;-65
2023/10/31 01:07:16;;;;;;;1.30;0.73;;;;;;;12.10;80.49;99067.94;4159499;28;20099;-65
2023/10/31 01:09:19;;;;;;;3.45;1.20;;;;;;;12.16;81.18;99070.47;4160364;28;20045;-65
2023/10/31 01:11:22;;;;;;;6.68;1.50;;;;;;;12.11;81.30;99077.47;4175811;28;20041;-66
2023/10/31 01:13:26;;;;;;;0.98;0.60;;;;;;;12.14;81.40;99080.03;4158718;28;20041;-65
2023/10/31 01:15:30;;;;;;;5.90;1.15;;;;;;;12.14;81.46;99077.44;4175668;28;20040;-65
2023/10/31 01:17:34;;;;;;;2.05;1.02;;;;;;;12.16;81.73;99080.00;4160512;28;20399;-65
2023/10/31 01:19:37;;;;;;;6.68;1.08;;;;;;;12.15;82.07;99086.09;4190632;28;20127;-65
2023/10/31 01:21:40;;;;;;;2.30;0.70;;;;;;;12.02;80.18;99093.25;4162040;28;20037;-65
2023/10/31 01:23:43;;;;;;;1.83;0.70;;;;;;;12.06;80.15;99084.47;4162058;28;20044;-65
2023/10/31 01:25:46;;;;;;;2.90;0.65;;;;;;;12.15;80.89;99089.59;4195068;28;20032;-65
2023/10/31 01:27:48;;;;;;;2.97;0.60;;;;;;;12.07;80.58;99086.22;4161125;28;20041;-65
2023/10/31 01:29:52;;;;;;;2.92;0.80;;;;;;;12.11;80.47;99087.91;4159090;28;20410;-65
2023/10/31 01:31:55;;;;;;;0.73;0.50;;;;;;;12.12;80.56;99094.84;4159992;28;20038;-65
2023/10/31 01:34:05;;;;;;;5.03;0.68;;;;;;;12.16;80.66;99099.13;4159159;28;20042;-66
2023/10/31 01:36:10;;;;;;;0.60;0.45;;;;;;;12.18;81.07;99099.97;4142566;28;20134;-65
2023/10/31 01:38:12;;;;;;;1.45;0.80;;;;;;;12.18;80.21;99097.34;4163433;28;20041;-65
2023/10/31 01:40:15;;;;;;;5.07;0.70;;;;;;;12.15;81.00;99102.59;4178508;28;20037;-65
2023/10/31 01:42:18;;;;;;;0.70;0.50;;;;;;;12.16;80.76;99112.16;4192473;28;20048;-65
2023/10/31 01:44:21;;;;;;;3.60;0.70;;;;;;;12.12;80.68;99107.88;4194477;28;20429;-65
2023/10/31 01:46:25;;;;;;;1.65;0.63;;;;;;;12.03;81.10;99110.56;4176641;28;20036;-65
2023/10/31 01:48:31;;;;;;;2.72;0.70;;;;;;;11.95;81.55;99110.69;4175925;28;20037;-65
2023/10/31 01:50:34;;;;;;;1.80;0.60;;;;;;;11.94;82.18;99111.56;4160622;28;20568;-66
2023/10/31 01:52:38;;;;;;;2.20;0.60;;;;;;;11.93;82.32;99108.94;4156854;28;20038;-65
2023/10/31 01:54:41;;;;;;;;;;;;;;;11.79;82.32;99110.00;4164484;28;20048;-65
2023/10/31 01:56:45;;;;;;;1.45;0.65;;;;;;;11.82;82.55;99112.56;4160302;28;19920;-65
2023/10/31 01:58:50;;;;;;;1.15;0.70;;;;;;;11.85;83.12;99104.69;4169705;28;20040;-65
2023/10/31 02:00:53;;;;;;;3.00;0.73;;;;;;;11.86;82.96;99106.44;4192705;28;20037;-65
2023/10/31 02:02:59;;;;;;;3.50;0.70;;;;;;;11.87;82.79;99115.97;4144843;28;20053;-65
2023/10/31 02:05:03;;;;;;;1.20;0.50;;;;;;;11.86;83.11;99113.38;4176578;28;20045;-65
2023/10/31 02:07:05;;;;;;;3.22;0.77;;;;;;;11.85;82.71;99107.31;4162143;28;20038;-65
2023/10/31 02:09:09;;;;;;;4.05;0.70;;;;;;;11.87;82.65;99113.38;4163020;28;20258;-66
2023/10/31 02:11:12;;;;;;;4.45;0.77;;;;;;;11.88;82.97;99111.63;4161750;28;20048;-65
2023/10/31 02:13:15;;;;;;;4.03;0.90;;;;;;;11.87;82.46;99110.75;4164868;28;20044;-65
2023/10/31 02:15:18;;;;;;;3.42;0.88;;;;;;;11.83;82.82;99109.06;4160512;28;20075;-65
2023/10/31 02:17:25;;;;;;;2.58;0.93;;;;;;;11.85;82.99;99119.47;4162785;28;20052;-66
2023/10/31 02:19:29;;;;;;;4.10;1.05;;;;;;;11.85;83.32;99125.53;4192597;28;20116;-65
2023/10/31 02:21:33;;;;;;;4.30;0.90;;;;;;;11.84;83.76;99123.81;4162095;28;20136;-65
2023/10/31 02:23:37;;;;;;;4.87;0.77;;;;;;;11.85;83.42;99125.53;4161727;28;20043;-65
2023/10/31 02:25:39;;;;;;;2.47;1.05;;;;;;;11.92;82.86;99133.28;4143190;28;20309;-65
2023/10/31 02:27:42;;;;;;;2.97;0.80;;;;;;;11.86;82.70;99122.06;4161330;28;20045;-66
2023/10/31 02:29:45;;;;;;;3.47;0.80;;;;;;;11.82;82.47;99124.72;4159190;28;20052;-65
2023/10/31 02:31:48;;;;;;;1.20;0.73;;;;;;;11.79;81.88;99115.19;4160359;28;20041;-66
2023/10/31 02:33:50;;;;;;;0.82;0.50;;;;;;;11.79;82.00;99127.38;4162707;28;20133;-66
2023/10/31 02:35:53;;;;;;;5.55;0.65;;;;;;;11.72;81.79;99123.97;4160844;28;20045;-65
2023/10/31 02:37:55;;;;;;;0.65;0.43;;;;;;;11.61;81.84;99138.84;4167622;28;20034;-65
2023/10/31 02:40:00;;;;;;;1.38;0.60;;;;;;;11.52;82.08;99145.88;4161686;28;20403;-65
2023/10/31 02:42:03;;;;;;;1.33;0.60;;;;;;;11.54;82.39;99145.88;4159552;28;20041;-65
2023/10/31 02:44:05;;;;;;;4.10;0.70;;;;;;;11.57;82.25;99147.59;4162709;28;20376;-65
2023/10/31 02:46:08;;;;;;;1.35;0.57;;;;;;;11.62;81.92;99149.25;4162624;28;20503;-65
2023/10/31 02:48:11;;;;;;;1.60;0.90;;;;;;;11.66;81.95;99152.69;4159772;28;20077;-65
2023/10/31 02:50:14;;;;;;;2.42;0.50;;;;;;;11.72;81.49;99156.94;4192835;28;20414;-65
2023/10/31 02:52:16;;;;;;;0.82;0.60;;;;;;;11.75;81.95;99162.97;4161202;28;20486;-65
2023/10/31 02:54:19;;;;;;;0.75;0.60;;;;;;;11.76;81.84;99163.84;4158783;28;20060;-65
2023/10/31 02:56:25;;;;;;;1.42;0.52;;;;;;;11.74;82.13;99171.69;4162198;28;20056;-65
2023/10/31 02:58:27;;;;;;;5.25;1.25;;;;;;;11.70;82.31;99165.63;4155763;28;20431;-65
2023/10/31 03:00:30;;;;;;;1.98;0.50;;;;;;;11.78;82.49;99172.50;4174719;28;20072;-65
2023/10/31 03:02:32;;;;;;;1.30;0.60;;;;;;;11.75;82.36;99173.38;4159426;28;20049;-65
2023/10/31 03:04:34;;;;;;;2.35;0.60;;;;;;;11.71;81.74;99161.31;4190294;28;20036;-65
2023/10/31 03:06:38;;;;;;;1.95;0.60;;;;;;;11.69;82.55;99158.69;4159629;28;20407;-65
2023/10/31 03:08:40;;;;;;;0.68;0.68;;;;;;;11.66;82.68;99163.94;4161410;28;20484;-65
2023/10/31 03:10:43;;;;;;;2.58;0.70;;;;;;;11.75;82.04;99173.38;4160943;28;20068;-65
2023/10/31 03:12:47;;;;;;;3.47;0.80;;;;;;;11.72;82.48;99176.03;4170792;28;20033;-65
2023/10/31 03:14:50;;;;;;;0.88;0.63;;;;;;;11.72;82.29;99178.63;4191700;28;20048;-65
2023/10/31 03:16:53;;;;;;;3.38;0.70;;;;;;;11.70;82.34;99170.84;4159448;28;20053;-65
2023/10/31 03:18:57;;;;;;;0.70;0.70;;;;;;;11.69;82.13;99176.91;4158583;28;20044;-65
2023/10/31 03:20:59;;;;;;;6.00;1.33;;;;;;;11.66;82.85;99173.50;4159966;28;20057;-65
2023/10/31 03:23:03;;;;;;;1.67;0.70;;;;;;;11.69;81.97;99179.53;4160994;28;20298;-65
2023/10/31 03:25:07;;;;;;;2.10;1.00;;;;;;;11.63;82.23;99189.16;4160797;28;20127;-66
2023/10/31 03:27:10;;;;;;;2.33;0.90;;;;;;;11.64;82.26;99191.75;4160872;28;20053;-66
2023/10/31 03:29:13;;;;;;;1.63;0.70;;;;;;;11.61;82.49;99196.09;4159225;28;20041;-66
2023/10/31 03:31:16;;;;;;;1.40;0.90;;;;;;;11.61;82.59;99198.72;4160345;28;20057;-66
2023/10/31 03:33:19;;;;;;;2.22;0.80;;;;;;;11.61;82.72;99204.78;4159430;28;20029;-66
2023/10/31 03:35:22;;;;;;;0.60;0.60;;;;;;;11.64;82.79;99201.31;4162307;28;20042;-65
2023/10/31 03:37:25;;;;;;;3.33;1.08;;;;;;;11.68;83.02;99213.38;4162804;28;20554;-66
2023/10/31 03:39:28;;;;;;;2.25;0.88;;;;;;;11.69;83.51;99218.56;4159705;28;20678;-66
2023/10/31 03:41:32;;;;;;;2.35;0.75;;;;;;;11.73;83.17;99215.97;4175912;28;20076;-66
2023/10/31 03:43:35;;;;;;;1.40;0.80;;;;;;;11.70;82.89;99222.06;4159338;28;20132;-65
2023/10/31 03:45:40;;;;;;;2.78;1.00;;;;;;;11.67;82.76;99222.09;4152184;28;20443;-65
2023/10/31 03:47:43;;;;;;;0.85;0.82;;;;;;;11.66;82.29;99218.59;4161999;28;20503;-65
2023/10/31 03:49:45;;;;;;;2.13;0.88;;;;;;;11.72;82.47;99222.03;4159181;28;20037;-65
2023/10/31 03:51:48;;;;;;;1.10;0.77;;;;;;;11.69;82.44;99220.31;4159505;28;20037;-65
2023/10/31 03:53:51;;;;;;;2.47;0.65;;;;;;;11.71;82.73;99229.00;4157612;28;20165;-65
2023/10/31 03:55:54;;;;;;;2.15;0.90;;;;;;;11.66;83.25;99225.56;4166755;28;20458;-66
2023/10/31 03:57:57;;;;;;;2.67;1.00;;;;;;;11.65;82.35;99229.03;4161490;28;20061;-65
2023/10/31 04:00:00;;;;;;;0.90;0.70;;;;;;;11.67;82.74;99229.91;4174325;28;20068;-65
2023/10/31 04:02:04;;;;;;;1.77;0.80;;;;;;;11.69;82.97;99226.38;4158504;28;21215;-65
2023/10/31 04:04:07;;;;;;;3.13;0.98;;;;;;;11.65;83.52;99218.63;4166101;28;20055;-65
2023/10/31 04:06:10;;;;;;;1.20;0.60;;;;;;;11.61;82.79;99228.22;4160681;28;20065;-65
2023/10/31 04:08:13;;;;;;;1.50;0.90;;;;;;;11.59;83.22;99221.28;4158977;28;20052;-65
2023/10/31 04:10:17;;;;;;;4.38;0.70;;;;;;;11.60;82.93;99225.63;4192369;28;20032;-65
2023/10/31 04:12:20;;;;;;;4.70;0.98;;;;;;;11.52;82.42;99226.56;4159961;28;20065;-65
2023/10/31 04:14:22;;;;;;;3.20;1.00;;;;;;;11.50;82.67;99233.50;4159719;28;20088;-66
2023/10/31 04:16:25;;;;;;;1.23;0.60;;;;;;;11.56;82.66;99239.56;4164130;28;20124;-65
2023/10/31 04:18:29;;;;;;;1.67;0.98;;;;;;;11.66;82.51;99233.38;4163744;28;20384;-65
2023/10/31 04:20:31;;;;;;;1.45;0.68;;;;;;;11.61;81.62;99243.84;4159319;28;20132;-65
2023/10/31 04:22:34;;;;;;;1.52;0.60;;;;;;;11.48;81.79;99244.84;4160709;28;20041;-65
2023/10/31 04:24:37;;;;;;;2.97;0.90;;;;;;;11.45;81.68;99248.31;4160891;28;20034;-66
2023/10/31 04:26:41;;;;;;;3.78;1.10;;;;;;;11.45;81.11;99248.31;4161340;28;20131;-66
2023/10/31 04:28:43;;;;;;;3.80;0.85;;;;;;;11.48;81.38;99253.50;4161798;28;20095;-65
2023/10/31 04:30:46;;;;;;;1.95;0.80;;;;;;;11.53;81.52;99249.13;4161813;28;20049;-65
2023/10/31 04:32:48;;;;;;;1.77;0.70;;;;;;;11.54;81.83;99252.59;4164335;28;20091;-66
2023/10/31 04:34:53;;;;;;;1.70;0.68;;;;;;;11.51;82.26;99248.25;4163988;28;20046;-65
2023/10/31 04:36:56;;;;;;;3.35;0.73;;;;;;;11.47;82.06;99251.75;4155914;28;20045;-65
2023/10/31 04:38:59;;;;;;;2.35;0.77;;;;;;;11.46;81.96;99244.84;4160819;28;20042;-65
2023/10/31 04:41:01;;;;;;;1.52;0.50;;;;;;;11.38;81.52;99251.00;4164965;28;20227;-65
2023/10/31 04:43:04;;;;;;;4.35;0.68;;;;;;;11.32;82.10;99241.50;4161812;28;20049;-65
2023/10/31 04:45:09;;;;;;;4.80;1.05;;;;;;;11.42;82.73;99248.34;4159367;28;20076;-65
2023/10/31 04:47:12;;;;;;;2.67;0.88;;;;;;;11.43;81.95;99249.22;4159519;28;20442;-65
2023/10/31 04:49:15;;;;;;;1.42;0.70;;;;;;;11.33;82.17;99251.00;4159636;28;20120;-65
2023/10/31 04:51:19;;;;;;;3.15;1.15;;;;;;;11.43;82.07;99249.22;4159856;28;20121;-65
2023/10/31 04:53:22;;;;;;;1.50;0.60;;;;;;;11.34;82.07;99244.94;4162511;28;20407;-66
2023/10/31 04:55:24;;;;;;;1.58;0.73;;;;;;;11.41;81.89;99253.56;4162022;28;20049;-66
2023/10/31 04:57:27;;;;;;;3.78;0.80;;;;;;;11.43;81.89;99250.06;4164316;28;20120;-65
2023/10/31 04:59:30;;;;;;;1.55;0.60;;;;;;;11.47;82.22;99246.56;4162769;28;20033;-66
2023/10/31 05:01:33;;;;;;;2.83;0.70;;;;;;;11.50;82.21;99248.28;4163569;28;20036;-66
2023/10/31 05:03:36;;;;;;;2.13;0.88;;;;;;;11.48;82.61;99245.69;4163452;28;20047;-66
2023/10/31 05:05:39;;;;;;;0.80;0.50;;;;;;;11.44;82.54;99246.59;4162468;28;20407;-66
2023/10/31 05:07:43;;;;;;;2.20;0.80;;;;;;;11.38;81.34;99246.66;4163952;28;20034;-65
2023/10/31 05:09:46;;;;;;;5.32;0.95;;;;;;;11.31;81.47;99251.03;4158691;28;20041;-65
2023/10/31 05:11:49;;;;;;;1.42;0.88;;;;;;;11.27;81.64;99251.06;4164223;28;20491;-65
2023/10/31 05:13:53;;;;;;;2.03;0.80;;;;;;;11.32;81.43;99254.50;4164233;28;20056;-65
2023/10/31 05:15:56;;;;;;;2.28;0.80;;;;;;;11.36;81.48;99248.41;4161335;28;20053;-65
2023/10/31 05:18:00;;;;;;;5.30;1.15;;;;;;;11.37;81.49;99254.47;4162916;28;20045;-65
2023/10/31 05:20:06;;;;;;;1.88;0.73;;;;;;;11.29;81.40;99255.41;4164065;28;20041;-65
2023/10/31 05:22:09;;;;;;;4.60;0.90;;;;;;;11.25;81.74;99250.25;4163919;28;20037;-65
2023/10/31 05:24:13;;;;;;;3.00;0.98;;;;;;;11.29;81.15;99257.16;4162173;28;20052;-65
2023/10/31 05:26:16;;;;;;;1.70;0.90;;;;;;;11.31;81.61;99256.22;4163828;28;20037;-66
2023/10/31 05:28:19;;;;;;;2.72;1.00;;;;;;;11.27;81.44;99249.34;4163075;28;20095;-65
2023/10/31 05:30:22;;;;;;;2.65;0.75;;;;;;;11.31;81.76;99250.19;4161800;28;20042;-65
2023/10/31 05:32:24;;;;;;;4.18;1.40;;;;;;;11.34;82.14;99252.75;4164175;28;20140;-65
2023/10/31 05:34:27;;;;;;;3.38;0.85;;;;;;;11.31;81.63;99255.38;4164272;28;20042;-65
2023/10/31 05:36:30;;;;;;;5.68;1.23;;;;;;;11.34;81.38;99260.56;4177120;28;20037;-65
2023/10/31 05:38:33;;;;;;;4.72;1.00;;;;;;;11.40;81.22;99268.31;4158657;28;20045;-65
2023/10/31 05:40:38;;;;;;;4.35;0.80;;;;;;;11.45;81.11;99266.53;4163360;28;20038;-65
2023/10/31 05:42:41;;;;;;;3.75;1.02;;;;;;;11.42;81.04;99271.78;4161509;28;20057;-65
2023/10/31 05:44:46;;;;;;;3.38;0.73;;;;;;;11.38;80.50;99271.81;4160294;28;20125;-65
2023/10/31 05:46:49;;;;;;;6.10;0.88;;;;;;;11.44;80.72;99280.41;4162623;28;20041;-65
2023/10/31 05:48:53;;;;;;;4.05;1.27;;;;;;;11.44;81.34;99284.78;4163055;28;20041;-65
2023/10/31 05:50:56;;;;;;;2.70;0.77;;;;;;;11.33;80.21;99282.25;4161662;28;20042;-66
2023/10/31 05:53:00;;;;;;;;;;;;;;;11.28;80.91;99281.44;4163606;28;20399;-66
2023/10/31 05:55:04;;;;;;;1.52;1.10;;;;;;;11.33;81.65;99295.25;4160486;28;19928;-66
2023/10/31 05:57:08;;;;;;;8.48;1.13;;;;;;;11.35;81.55;99288.31;4164328;28;20132;-66
2023/10/31 05:59:11;;;;;;;4.35;1.10;;;;;;;11.33;80.98;99297.84;4163092;28;20038;-66
2023/10/31 06:01:14;;;;;;;8.65;1.20;;;;;;;11.34;81.78;99292.63;4162285;28;20048;-66
2023/10/31 06:03:17;;;;;;;5.63;1.13;;;;;;;11.38;81.24;99306.50;4164037;28;20041;-65
2023/10/31 06:05:20;;;;;;;5.45;0.90;;;;;;;11.36;81.86;99316.06;4162254;28;20140;-65
2023/10/31 06:07:23;;;;;;;4.00;0.90;;;;;;;11.31;81.51;99323.03;4162877;28;20041;-67
2023/10/31 06:09:26;;;;;;;2.50;1.00;;;;;;;11.28;81.59;99336.06;4157984;28;20263;-65
2023/10/31 06:11:29;;;;;;;2.75;1.00;;;;;;;11.23;82.40;99340.41;4161339;28;20063;-65
2023/10/31 06:13:34;;;;;;;7.47;2.17;;;;;;;11.18;82.77;99340.44;4166682;28;20148;-65
2023/10/31 06:15:35;;;;;;;2.20;1.10;;;;;;;11.22;82.21;99349.13;4162849;28;20152;-65
2023/10/31 06:17:39;;;;;;;1.83;0.80;;;;;;;11.26;82.52;99356.03;4157683;28;20045;-65
2023/10/31 06:19:45;;;;;;;8.65;2.75;;;;;;;11.26;82.77;99350.84;4168041;28;20590;-65
2023/10/31 06:21:48;;;;;;;2.05;1.10;;;;;;;11.21;83.03;99352.59;4160013;28;20487;-65
2023/10/31 06:23:50;;;;;;;3.08;1.17;;;;;;;11.21;82.98;99347.38;4165215;28;20508;-65
2023/10/31 06:25:53;;;;;;;2.13;1.13;;;;;;;11.23;82.80;99345.63;4162168;28;20046;-65
2023/10/31 06:27:56;;;;;;;4.43;1.00;;;;;;;11.26;82.95;99328.28;4160419;28;20064;-65
2023/10/31 06:30:00;;;;;;;2.97;1.10;;;;;;;11.28;82.62;99336.91;4165334;28;20510;-65
2023/10/31 06:32:22;;;;;;;4.53;1.13;;;;;;;11.28;82.89;99336.91;4157492;28;20116;-65
2023/10/31 06:34:25;;;;;;;7.13;3.05;;;;;;;11.18;83.33;99346.53;4161439;28;20045;-66
2023/10/31 06:36:28;;;;;;;1.95;0.90;;;;;;;11.20;83.14;99346.53;4160555;28;20072;-65
2023/10/31 06:38:31;;;;;;;4.00;1.38;;;;;;;11.26;83.02;99358.63;4162609;28;20419;-66
2023/10/31 06:40:33;;;;;;;3.65;0.82;;;;;;;11.31;82.44;99356.84;4166066;28;20095;-65
2023/10/31 06:42:36;;;;;;;5.07;1.38;;;;;;;11.39;82.36;99368.09;4170301;28;20123;-65
2023/10/31 06:44:39;;;;;;;2.15;0.95;;;;;;;11.41;81.95;99365.47;4160883;28;20033;-65
2023/10/31 06:46:42;;;;;;;4.13;1.25;;;;;;;11.41;82.21;99361.13;4162992;28;20044;-65
2023/10/31 06:48:45;;;;;;;3.55;0.85;;;;;;;11.35;82.38;99361.16;4162840;28;20048;-65
2023/10/31 06:50:48;;;;;;;2.05;1.25;;;;;;;11.31;82.14;99364.66;4162845;28;20045;-65
2023/10/31 06:52:51;;;;;;;2.58;0.90;;;;;;;11.30;82.04;99368.13;4167793;28;20465;-66
2023/10/31 06:54:53;;;;;;;2.08;0.82;;;;;;;11.21;82.69;99373.41;4161514;28;20067;-65
2023/10/31 06:56:56;;;;;;;1.02;0.70;;;;;;;11.15;82.49;99382.09;4193058;28;20119;-65
2023/10/31 06:58:59;;;;;;;3.13;1.00;;;;;;;11.13;81.93;99386.47;4190260;28;20033;-66
2023/10/31 07:01:03;;;;;;;5.25;1.20;;;;;;;11.17;82.15;99383.81;4160635;28;20037;-66
2023/10/31 07:03:09;;;;;;;3.83;1.00;;;;;;;11.16;82.41;99386.44;4158918;28;20510;-66
2023/10/31 07:05:12;;;;;;;1.40;0.90;;;;;;;11.14;82.84;99402.06;4162732;28;20522;-66
2023/10/31 07:07:15;;;;;;;0.98;0.73;;;;;;;11.15;82.48;99414.16;4157310;28;20046;-66
2023/10/31 07:09:18;;;;;;;6.03;1.20;;;;;;;11.18;82.20;99400.28;4166836;28;20052;-66
2023/10/31 07:11:21;;;;;;;3.47;0.90;;;;;;;11.15;82.04;99421.97;4158082;28;20041;-67
2023/10/31 07:13:24;;;;;;;2.90;1.00;;;;;;;11.15;82.43;99421.97;4158268;28;20125;-66
2023/10/31 07:15:27;;;;;;;2.58;1.23;;;;;;;11.21;82.08;99428.03;4161170;28;20052;-66
2023/10/31 07:17:31;;;;;;;1.73;0.80;;;;;;;11.30;82.62;99422.75;4159526;28;20128;-67
2023/10/31 07:19:35;;;;;;;5.70;1.05;;;;;;;11.29;82.45;99424.50;4161034;28;20053;-66
2023/10/31 07:21:38;;;;;;;5.15;1.20;;;;;;;11.31;82.35;99421.91;4162155;28;20065;-66
2023/10/31 07:23:41;;;;;;;2.95;1.10;;;;;;;11.41;82.49;99420.13;4153817;28;20390;-66
2023/10/31 07:25:45;;;;;;;6.68;1.20;;;;;;;11.40;81.18;99432.25;4185919;28;20550;-66
2023/10/31 07:27:48;;;;;;;2.85;0.95;;;;;;;11.32;81.61;99431.44;4161529;28;20554;-66
2023/10/31 07:29:51;;;;;;;5.68;1.40;;;;;;;11.36;81.28;99430.56;4165219;28;20049;-66
2023/10/31 07:31:54;;;;;;;3.47;0.95;;;;;;;11.34;81.60;99447.91;4160049;28;20122;-66
2023/10/31 07:33:57;;;;;;;2.83;1.40;;;;;;;11.39;81.46;99451.34;4163192;28;20040;-66
2023/10/31 07:36:01;;;;;;;6.50;0.98;;;;;;;11.44;81.79;99449.56;4167718;28;20035;-66
2023/10/31 07:38:04;;;;;;;2.13;1.20;;;;;;;11.47;81.31;99459.97;4166583;28;20041;-65
2023/10/31 07:40:08;;;;;;;2.60;0.75;;;;;;;11.52;81.09;99460.81;4164805;28;20102;-66
2023/10/31 07:42:10;;;;;;;4.03;0.90;;;;;;;11.55;81.61;99461.66;4164968;28;20124;-66
2023/10/31 07:44:14;;;;;;;4.25;0.95;;;;;;;11.60;81.65;99465.13;4158797;28;20449;-69
2023/10/31 07:46:17;;;;;;;1.80;0.70;;;;;;;11.64;81.48;99464.22;4160840;28;20041;-67
2023/10/31 07:48:20;;;;;;;1.13;0.90;;;;;;;11.69;82.04;99465.06;4161159;28;20045;-68
2023/10/31 07:50:22;;;;;;;4.60;0.90;;;;;;;11.69;81.82;99468.50;4171790;28;20037;-67
2023/10/31 07:52:27;;;;;;;2.42;0.85;;;;;;;11.73;82.02;99466.75;4174237;28;20132;-68
2023/10/31 07:54:29;;;;;;;4.53;1.15;;;;;;;11.77;82.16;99468.47;4193365;28;20131;-67
2023/10/31 07:56:34;;;;;;;4.28;1.00;;;;;;;11.81;82.27;99462.38;4161371;28;20487;-67
2023/10/31 07:58:37;;;;;;;0.98;0.75;;;;;;;11.83;82.22;99463.22;4157431;28;20087;-69
2023/10/31 08:00:40;;;;;;;2.42;0.90;;;;;;;11.85;82.29;99469.28;4159327;28;20491;-69
2023/10/31 08:02:43;;;;;;;2.20;1.10;;;;;;;11.85;81.85;99471.88;4158098;28;20156;-66
2023/10/31 08:04:46;;;;;;;1.85;0.70;;;;;;;11.86;81.66;99465.81;4158214;28;20037;-67
2023/10/31 08:06:49;;;;;;;2.08;0.90;;;;;;;11.82;80.75;99471.91;4158436;28;20037;-68
2023/10/31 08:08:53;;;;;;;1.88;1.15;;;;;;;11.80;80.40;99478.88;4154165;28;20069;-68
2023/10/31 08:10:57;;;;;;;1.75;1.20;;;;;;;11.77;79.90;99486.72;4153275;28;20052;-67
2023/10/31 08:13:00;;;;;;;2.85;0.98;;;;;;;11.80;80.05;99494.50;4158873;28;20048;-68
2023/10/31 08:15:03;;;;;;;4.65;1.05;;;;;;;11.69;79.78;99486.72;4161297;28;20055;-67
2023/10/31 08:17:06;;;;;;;5.57;1.13;;;;;;;11.75;80.24;99487.59;4160953;28;20171;-67
2023/10/31 08:19:08;;;;;;;2.95;0.95;;;;;;;11.86;79.72;99489.25;4157755;28;20042;-67
2023/10/31 08:21:13;;;;;;;1.77;1.05;;;;;;;11.86;80.45;99494.44;4159349;28;20511;-68
2023/10/31 08:23:16;;;;;;;5.43;1.20;;;;;;;12.02;79.91;99497.00;4157661;28;21034;-67
2023/10/31 08:25:22;;;;;;;8.48;2.08;;;;;;;12.01;80.20;99492.66;4156186;28;20044;-67
2023/10/31 08:27:25;;;;;;;4.68;1.90;;;;;;;11.99;80.05;99491.81;4159681;28;20048;-67
2023/10/31 08:29:28;;;;;;;2.83;1.30;;;;;;;12.03;80.54;99490.88;4154829;28;20049;-68
2023/10/31 08:31:31;;;;;;;2.95;1.27;;;;;;;11.97;80.65;99496.16;4163385;28;20038;-67
2023/10/31 08:33:34;;;;;;;3.30;1.40;;;;;;;12.04;80.56;99498.69;4154822;28;20025;-67
2023/10/31 08:35:37;;;;;;;3.70;1.40;;;;;;;12.13;80.53;99508.16;4163761;28;20050;-68
2023/10/31 08:37:40;;;;;;;2.78;1.10;;;;;;;12.14;80.54;99504.69;4161300;28;20037;-67
2023/10/31 08:39:44;;;;;;;1.92;0.90;;;;;;;12.10;80.21;99503.00;4158701;28;20085;-67
2023/10/31 08:41:56;;;;;;;4.20;1.05;;;;;;;12.18;80.01;99506.41;4158150;28;20411;-68
2023/10/31 08:43:59;;;;;;;2.22;0.95;;;;;;;12.10;80.28;99508.19;4161643;28;20033;-68
2023/10/31 08:46:02;;;;;;;5.28;1.15;;;;;;;12.16;79.95;99508.19;4159438;28;20034;-67
2023/10/31 08:48:06;;;;;;;3.13;1.20;;;;;;;12.11;79.30;99515.16;4160851;28;20048;-67
2023/10/31 08:50:09;;;;;;;5.70;1.33;;;;;;;11.95;78.23;99523.97;4159741;28;20033;-68
2023/10/31 08:52:11;;;;;;;5.13;1.17;;;;;;;11.96;79.00;99530.88;4159489;28;20070;-67
2023/10/31 08:54:14;;;;;;;4.43;1.13;;;;;;;11.93;77.80;99523.06;4163723;28;20415;-68
2023/10/31 08:56:17;;;;;;;1.95;0.73;;;;;;;11.97;77.81;99532.63;4164193;28;20527;-68
2023/10/31 08:58:21;;;;;;;3.05;1.30;;;;;;;12.03;77.80;99527.34;4162439;28;20099;-67
2023/10/31 09:00:24;;;;;;;3.10;1.05;;;;;;;12.09;77.41;99524.72;4161371;28;20038;-68
2023/10/31 09:02:27;;;;;;;3.20;1.38;;;;;;;12.02;77.40;99526.50;4163513;28;20041;-68
2023/10/31 09:04:34;;;;;;;2.70;0.82;;;;;;;12.03;77.44;99525.63;4158170;28;20045;-68
2023/10/31 09:06:37;;;;;;;6.18;1.27;;;;;;;12.09;76.65;99531.66;4161132;28;20041;-68
2023/10/31 09:08:40;;;;;;;7.25;1.63;;;;;;;12.11;76.61;99536.00;4160544;28;20050;-67
2023/10/31 09:10:46;;;;;;;5.53;1.45;;;;;;;12.11;75.28;99541.19;4160086;28;20037;-68
2023/10/31 09:12:49;;;;;;;7.80;1.35;;;;;;;12.12;75.17;99540.34;4160585;28;20132;-68
2023/10/31 09:14:53;;;;;;;6.60;1.30;;;;;;;12.10;75.49;99549.88;4158993;28;20042;-68
2023/10/31 09:16:55;;;;;;;3.85;1.42;;;;;;;12.19;76.06;99544.63;4160677;28;20065;-67
2023/10/31 09:18:58;;;;;;;7.50;1.70;;;;;;;12.33;75.85;99548.88;4154347;28;20491;-68
2023/10/31 09:21:01;;;;;;;6.13;1.05;;;;;;;12.37;75.66;99558.41;4159291;28;20036;-68
2023/10/31 09:23:03;;;;;;;6.03;1.33;;;;;;;12.37;75.11;99558.41;4157534;28;20080;-67
2023/10/31 09:25:06;;;;;;;3.13;1.17;;;;;;;12.43;75.32;99557.50;4159475;28;20045;-67
2023/10/31 09:27:10;;;;;;;7.50;1.63;;;;;;;12.60;75.30;99557.34;4156837;28;20049;-67
2023/10/31 09:29:13;;;;;;;3.97;1.15;;;;;;;12.69;74.90;99560.72;4157558;28;20546;-67
2023/10/31 09:31:31;;;;;;;9.48;1.75;;;;;;;12.73;75.02;99561.56;4159981;28;20132;-69
2023/10/31 09:33:34;;;;;;;7.40;1.42;;;;;;;12.82;75.05;99555.38;4163285;28;20041;-68
2023/10/31 09:35:37;;;;;;;7.60;1.67;;;;;;;12.97;74.26;99554.41;4172947;28;20048;-67
2023/10/31 09:37:40;;;;;;;4.25;1.10;;;;;;;13.00;73.37;99546.53;4161631;28;20463;-67
2023/10/31 09:39:43;;;;;;;3.63;1.10;;;;;;;13.08;73.29;99557.72;4156563;28;20064;-67
2023/10/31 09:41:48;;;;;;;6.20;1.35;;;;;;;13.00;72.70;99550.00;4159503;28;20072;-68